Time;durP1;ratioP1;P1;durP2;ratioP2;P2;SDS_P1;SDS_P2;PMS_P1;PMS_P2;Temp;Humidity;BMP_temperature;BMP_pressure;BME280_temperature;BME280_humidity;BME280_pressure;Samples;Min_cycle;Max_cycle;Signal;HPM_P1;HPM_P2
2024/01/09 00:02:27;;;;;;;2.17;1.98;;;;;;;;;;5038447;28;20040;-73
2024/01/09 00:04:54;;;;;;;2.47;2.08;;;;;;;;;;5020792;28;20021;-73
2024/01/09 00:07:20;;;;;;;3.28;2.05;;;;;;;;;;5019226;28;20056;-72
2024/01/09 00:09:47;;;;;;;2.22;2.03;;;;;;;;;;5021151;28;20028;-73
2024/01/09 00:12:13;;;;;;;2.03;1.77;;;;;;;;;;5022810;28;20095;-73
2024/01/09 00:14:40;;;;;;;4.80;2.45;;;;;;;;;;5021438;28;20029;-73
2024/01/09 00:17:06;;;;;;;1.73;1.63;;;;;;;;;;5021966;28;20026;-73
2024/01/09 00:19:33;;;;;;;2.05;1.67;;;;;;;;;;5016469;28;20389;-73
2024/01/09 00:22:02;;;;;;;2.67;2.38;;;;;;;;;;5022536;28;20824;-73
2024/01/09 00:24:28;;;;;;;2.25;1.88;;;;;;;;;;5023205;28;20049;-73
2024/01/09 00:26:55;;;;;;;2.20;1.77;;;;;;;;;;5027793;28;20417;-73
2024/01/09 00:29:21;;;;;;;3.85;2.03;;;;;;;;;;5017373;28;20025;-72
2024/01/09 00:31:47;;;;;;;2.25;2.15;;;;;;;;;;5041949;28;20029;-72
2024/01/09 00:34:13;;;;;;;1.35;1.35;;;;;;;;;;5017566;28;20086;-73
2024/01/09 00:36:43;;;;;;;2.00;1.90;;;;;;;;;;5017363;28;20557;-73
2024/01/09 00:39:09;;;;;;;3.83;2.08;;;;;;;;;;5039091;28;20028;-73
2024/01/09 00:41:36;;;;;;;2.75;2.13;;;;;;;;;;5016998;28;20022;-72
2024/01/09 00:44:02;;;;;;;2.47;1.75;;;;;;;;;;5023750;28;20037;-73
2024/01/09 00:46:28;;;;;;;4.07;2.38;;;;;;;;;;5013609;28;20096;-73
2024/01/09 00:48:55;;;;;;;2.15;2.05;;;;;;;;;;5016488;28;20041;-73
2024/01/09 00:51:21;;;;;;;4.40;1.92;;;;;;;;;;5020997;28;20088;-73
2024/01/09 00:53:47;;;;;;;1.85;1.63;;;;;;;;;;5015576;28;20034;-73
2024/01/09 00:56:13;;;;;;;2.25;1.80;;;;;;;;;;5012085;28;20394;-73
2024/01/09 00:58:39;;;;;;;3.95;1.80;;;;;;;;;;5010582;28;20567;-73
2024/01/09 01:01:05;;;;;;;1.40;1.40;;;;;;;;;;5016315;28;20072;-73
2024/01/09 01:03:32;;;;;;;2.10;1.88;;;;;;;;;;5018160;28;20466;-73
2024/01/09 01:05:58;;;;;;;2.28;1.92;;;;;;;;;;5016032;28;20464;-73
2024/01/09 01:08:24;;;;;;;1.63;1.52;;;;;;;;;;5021671;28;20036;-73
2024/01/09 01:10:51;;;;;;;3.83;1.65;;;;;;;;;;5015566;28;20030;-73
2024/01/09 01:13:17;;;;;;;1.42;1.40;;;;;;;;;;5023444;28;20063;-73
2024/01/09 01:15:43;;;;;;;2.03;1.52;;;;;;;;;;5024935;28;20668;-73
2024/01/09 01:18:09;;;;;;;1.80;1.70;;;;;;;;;;5017410;28;20037;-73
2024/01/09 01:20:36;;;;;;;1.90;1.50;;;;;;;;;;5018499;28;20026;-73
2024/01/09 01:23:02;;;;;;;1.75;1.63;;;;;;;;;;5023557;28;20029;-73
2024/01/09 01:25:28;;;;;;;2.42;1.73;;;;;;;;;;5018193;28;20084;-73
2024/01/09 01:27:54;;;;;;;1.92;1.60;;;;;;;;;;5021409;28;20425;-73
2024/01/09 01:30:20;;;;;;;2.42;1.90;;;;;;;;;;5021194;28;20053;-73
2024/01/09 01:32:47;;;;;;;2.60;1.73;;;;;;;;;;5010481;28;20045;-73
2024/01/09 01:35:13;;;;;;;1.88;1.77;;;;;;;;;;5025092;28;20429;-73
2024/01/09 01:37:39;;;;;;;2.65;1.85;;;;;;;;;;5016900;28;20516;-73
2024/01/09 01:40:05;;;;;;;1.60;1.50;;;;;;;;;;5027589;28;20032;-73
2024/01/09 01:42:32;;;;;;;1.52;1.42;;;;;;;;;;5021485;28;20053;-73
2024/01/09 01:44:58;;;;;;;1.80;1.45;;;;;;;;;;5039177;28;20432;-73
2024/01/09 01:47:24;;;;;;;4.90;1.73;;;;;;;;;;5032418;28;20038;-73
2024/01/09 01:49:51;;;;;;;1.60;1.50;;;;;;;;;;5024586;28;20045;-72
2024/01/09 01:52:17;;;;;;;2.03;1.70;;;;;;;;;;5026407;28;20025;-73
2024/01/09 01:54:44;;;;;;;2.33;2.03;;;;;;;;;;5046438;28;20026;-72
2024/01/09 01:57:10;;;;;;;4.57;1.98;;;;;;;;;;5018490;28;20030;-72
2024/01/09 01:59:39;;;;;;;4.85;2.15;;;;;;;;;;5015203;28;20037;-73
2024/01/09 02:02:05;;;;;;;2.28;1.98;;;;;;;;;;5018550;28;20083;-72
2024/01/09 02:04:32;;;;;;;6.80;1.92;;;;;;;;;;5022512;28;20026;-72
2024/01/09 02:06:59;;;;;;;2.90;1.83;;;;;;;;;;5019074;28;20045;-72
2024/01/09 02:09:25;;;;;;;1.60;1.50;;;;;;;;;;5037235;28;20088;-72
2024/01/09 02:11:51;;;;;;;2.97;2.03;;;;;;;;;;5021315;28;20022;-73
2024/01/09 02:14:17;;;;;;;3.03;2.03;;;;;;;;;;5013620;28;20021;-72
2024/01/09 02:16:43;;;;;;;2.90;2.00;;;;;;;;;;5020305;28;20026;-73
2024/01/09 02:19:09;;;;;;;6.60;1.80;;;;;;;;;;5018752;28;20088;-72
2024/01/09 02:21:36;;;;;;;4.63;1.40;;;;;;;;;;5019163;28;20068;-72
2024/01/09 02:24:02;;;;;;;2.00;1.73;;;;;;;;;;5019452;28;20028;-72
2024/01/09 02:26:32;;;;;;;6.50;1.83;;;;;;;;;;5018822;28;20083;-72
2024/01/09 02:29:02;;;;;;;5.68;2.17;;;;;;;;;;5016133;28;20041;-72
2024/01/09 02:31:28;;;;;;;2.90;2.00;;;;;;;;;;5036452;28;20022;-72
2024/01/09 02:33:55;;;;;;;1.80;1.70;;;;;;;;;;5026627;28;20076;-72
2024/01/09 02:36:21;;;;;;;2.45;1.70;;;;;;;;;;5028615;28;20030;-72
2024/01/09 02:38:48;;;;;;;4.13;2.25;;;;;;;;;;5017352;28;20227;-72
2024/01/09 02:41:14;;;;;;;3.17;2.20;;;;;;;;;;5018428;28;20072;-72
2024/01/09 02:43:40;;;;;;;3.85;1.63;;;;;;;;;;5021168;28;20386;-72
2024/01/09 02:46:06;;;;;;;1.70;1.60;;;;;;;;;;5010387;28;20037;-72
2024/01/09 02:48:32;;;;;;;8.25;2.63;;;;;;;;;;5018879;28;20034;-72
2024/01/09 02:50:58;;;;;;;3.28;2.00;;;;;;;;;;5021244;28;20248;-72
2024/01/09 02:53:24;;;;;;;2.67;1.58;;;;;;;;;;5021410;28;20138;-72
2024/01/09 02:55:51;;;;;;;1.85;1.75;;;;;;;;;;5019691;28;20033;-72
2024/01/09 02:58:17;;;;;;;1.63;1.52;;;;;;;;;;5012766;28;20022;-72
2024/01/09 03:00:43;;;;;;;3.60;1.88;;;;;;;;;;5024111;28;20033;-72
2024/01/09 03:03:09;;;;;;;1.70;1.60;;;;;;;;;;5023752;28;20017;-73
2024/01/09 03:05:35;;;;;;;4.72;1.75;;;;;;;;;;5034399;28;20029;-73
2024/01/09 03:08:02;;;;;;;2.70;2.42;;;;;;;;;;5044008;28;20533;-73
2024/01/09 03:10:28;;;;;;;3.08;1.52;;;;;;;;;;5017426;28;20054;-72
2024/01/09 03:12:54;;;;;;;7.25;1.80;;;;;;;;;;5038092;28;20049;-72
2024/01/09 03:15:20;;;;;;;2.15;1.77;;;;;;;;;;5019734;28;20032;-72
2024/01/09 03:17:47;;;;;;;1.52;1.42;;;;;;;;;;5030832;28;20048;-72
2024/01/09 03:20:13;;;;;;;2.50;2.00;;;;;;;;;;5018712;28;20026;-72
2024/01/09 03:22:39;;;;;;;3.45;2.20;;;;;;;;;;5023367;28;20033;-73
2024/01/09 03:25:06;;;;;;;2.72;2.05;;;;;;;;;;5034067;28;20045;-73
2024/01/09 03:27:32;;;;;;;8.07;2.03;;;;;;;;;;5017215;28;20562;-73
2024/01/09 03:29:58;;;;;;;3.35;1.90;;;;;;;;;;5021370;28;20030;-72
2024/01/09 03:32:24;;;;;;;5.97;2.13;;;;;;;;;;5010474;28;20044;-72
2024/01/09 03:34:51;;;;;;;2.10;1.90;;;;;;;;;;5018384;28;20046;-72
2024/01/09 03:37:17;;;;;;;11.02;2.25;;;;;;;;;;5022118;28;20056;-72
2024/01/09 03:39:45;;;;;;;3.13;2.08;;;;;;;;;;5025409;28;20548;-73
2024/01/09 03:42:11;;;;;;;2.65;1.75;;;;;;;;;;5021668;28;20034;-72
2024/01/09 03:44:37;;;;;;;3.35;1.70;;;;;;;;;;5024195;28;20056;-73
2024/01/09 03:47:04;;;;;;;2.35;2.10;;;;;;;;;;5031089;28;20048;-73
2024/01/09 03:49:30;;;;;;;5.07;2.17;;;;;;;;;;5021229;28;20052;-73
2024/01/09 03:51:58;;;;;;;3.92;1.85;;;;;;;;;;5017486;28;20413;-72
2024/01/09 03:54:25;;;;;;;2.88;1.90;;;;;;;;;;5020322;28;20396;-72
2024/01/09 03:56:51;;;;;;;5.88;1.85;;;;;;;;;;5022613;28;20112;-73
2024/01/09 03:59:17;;;;;;;2.13;2.03;;;;;;;;;;5024197;28;20029;-73
2024/01/09 04:01:43;;;;;;;5.38;2.40;;;;;;;;;;5037834;28;20029;-73
2024/01/09 04:04:09;;;;;;;2.83;1.55;;;;;;;;;;5037544;28;20817;-73
2024/01/09 04:06:43;;;;;;;2.75;1.90;;;;;;;;;;5024758;28;20025;-72
2024/01/09 04:09:10;;;;;;;3.53;1.60;;;;;;;;;;5024491;28;20038;-73
2024/01/09 04:11:41;;;;;;;3.47;2.33;;;;;;;;;;5031284;28;20029;-73
2024/01/09 04:14:07;;;;;;;1.77;1.67;;;;;;;;;;5027226;28;20117;-73
2024/01/09 04:16:34;;;;;;;2.03;1.88;;;;;;;;;;5024226;28;20028;-73
2024/01/09 04:19:00;;;;;;;2.30;2.10;;;;;;;;;;5015710;28;20132;-73
2024/01/09 04:21:26;;;;;;;7.15;2.22;;;;;;;;;;5023275;28;20025;-73
2024/01/09 04:23:52;;;;;;;1.77;1.67;;;;;;;;;;5021277;28;20374;-72
2024/01/09 04:26:19;;;;;;;7.63;2.22;;;;;;;;;;5012393;28;20026;-73
2024/01/09 04:28:45;;;;;;;3.63;1.63;;;;;;;;;;5026381;28;20036;-73
2024/01/09 04:31:11;;;;;;;5.25;2.17;;;;;;;;;;5015827;28;20040;-73
2024/01/09 04:33:41;;;;;;;3.30;1.70;;;;;;;;;;5012499;28;20030;-73
2024/01/09 04:36:07;;;;;;;4.88;1.83;;;;;;;;;;5025065;28;20057;-73
2024/01/09 04:38:33;;;;;;;1.77;1.67;;;;;;;;;;5025366;28;20040;-73
2024/01/09 04:40:59;;;;;;;1.70;1.60;;;;;;;;;;5020526;28;20037;-73
2024/01/09 04:43:26;;;;;;;1.83;1.67;;;;;;;;;;5025578;28;20268;-73
2024/01/09 04:45:52;;;;;;;5.22;1.92;;;;;;;;;;5017964;28;20026;-73
2024/01/09 04:48:18;;;;;;;5.85;1.67;;;;;;;;;;5022726;28;20505;-73
2024/01/09 04:50:44;;;;;;;2.72;1.90;;;;;;;;;;5015518;28;20048;-73
2024/01/09 04:53:11;;;;;;;2.40;1.75;;;;;;;;;;5015720;28;20037;-73
2024/01/09 04:55:37;;;;;;;2.00;1.77;;;;;;;;;;5017735;28;20160;-73
2024/01/09 04:58:04;;;;;;;2.00;1.70;;;;;;;;;;5041843;28;20038;-73
2024/01/09 05:00:30;;;;;;;1.75;1.67;;;;;;;;;;5020032;28;20083;-60
2024/01/09 05:02:56;;;;;;;6.25;2.40;;;;;;;;;;5022480;28;20132;-62
2024/01/09 05:05:22;;;;;;;2.30;2.10;;;;;;;;;;5022552;28;20040;-64
2024/01/09 05:07:48;;;;;;;3.78;1.50;;;;;;;;;;5024552;28;20037;-62
2024/01/09 05:10:15;;;;;;;2.67;1.80;;;;;;;;;;5023136;28;20034;-60
2024/01/09 05:12:41;;;;;;;1.58;1.42;;;;;;;;;;5018159;28;20033;-63
2024/01/09 05:15:08;;;;;;;4.80;1.80;;;;;;;;;;5019969;28;20040;-61
2024/01/09 05:17:35;;;;;;;3.78;1.77;;;;;;;;;;5026517;28;20070;-67
2024/01/09 05:20:02;;;;;;;1.52;1.42;;;;;;;;;;5023689;28;20033;-61
2024/01/09 05:22:28;;;;;;;2.67;2.05;;;;;;;;;;5022203;28;20059;-60
2024/01/09 05:24:54;;;;;;;5.50;1.70;;;;;;;;;;5022479;28;20572;-61
2024/01/09 05:27:21;;;;;;;2.70;1.90;;;;;;;;;;5016874;28;20103;-61
2024/01/09 05:29:47;;;;;;;2.08;1.60;;;;;;;;;;5017890;28;20510;-67
2024/01/09 05:32:13;;;;;;;1.88;1.77;;;;;;;;;;5020764;28;20022;-62
2024/01/09 05:34:39;;;;;;;2.47;2.20;;;;;;;;;;5015727;28;20369;-61
2024/01/09 05:37:05;;;;;;;4.47;1.88;;;;;;;;;;5019627;28;20022;-64
2024/01/09 05:39:31;;;;;;;3.72;1.90;;;;;;;;;;5023764;28;20036;-61
2024/01/09 05:41:57;;;;;;;7.40;1.80;;;;;;;;;;5015524;28;20030;-62
2024/01/09 05:44:23;;;;;;;5.70;2.05;;;;;;;;;;5018274;28;20037;-61
2024/01/09 05:46:50;;;;;;;3.55;2.30;;;;;;;;;;5041860;28;20033;-61
2024/01/09 05:49:16;;;;;;;2.95;1.77;;;;;;;;;;5018377;28;20116;-61
2024/01/09 05:51:42;;;;;;;1.95;1.83;;;;;;;;;;5014382;28;20282;-67
2024/01/09 05:54:08;;;;;;;5.72;2.10;;;;;;;;;;5019542;28;20107;-60
2024/01/09 05:56:35;;;;;;;2.40;2.20;;;;;;;;;;5015935;28;20041;-61
2024/01/09 05:59:01;;;;;;;7.85;2.25;;;;;;;;;;5022409;28;20497;-61
2024/01/09 06:01:27;;;;;;;7.50;1.77;;;;;;;;;;5039238;28;20028;-61
2024/01/09 06:03:53;;;;;;;3.78;1.98;;;;;;;;;;5029376;28;20021;-65
2024/01/09 06:06:19;;;;;;;2.03;1.83;;;;;;;;;;5019946;28;20429;-61
2024/01/09 06:08:48;;;;;;;5.70;1.95;;;;;;;;;;5042603;28;20038;-60
2024/01/09 06:11:15;;;;;;;8.23;2.15;;;;;;;;;;5022748;28;20535;-70
2024/01/09 06:13:41;;;;;;;5.78;2.00;;;;;;;;;;5024416;28;20036;-61
2024/01/09 06:16:07;;;;;;;4.07;1.73;;;;;;;;;;5018447;28;20033;-65
2024/01/09 06:18:34;;;;;;;1.92;1.60;;;;;;;;;;5021049;28;20018;-60
2024/01/09 06:21:00;;;;;;;4.45;2.10;;;;;;;;;;5012612;28;20041;-60
2024/01/09 06:23:26;;;;;;;2.47;2.00;;;;;;;;;;5022765;28;20029;-61
2024/01/09 06:25:53;;;;;;;4.28;1.70;;;;;;;;;;5019211;28;20068;-60
2024/01/09 06:28:19;;;;;;;2.00;1.80;;;;;;;;;;5030932;28;20033;-60
2024/01/09 06:30:45;;;;;;;2.72;2.40;;;;;;;;;;5024803;28;20064;-60
2024/01/09 06:33:11;;;;;;;1.70;1.60;;;;;;;;;;5020119;28;20098;-64
2024/01/09 06:35:38;;;;;;;2.05;1.63;;;;;;;;;;5015141;28;20025;-61
2024/01/09 06:38:04;;;;;;;4.53;2.00;;;;;;;;;;5028228;28;20447;-60
2024/01/09 06:40:30;;;;;;;3.22;1.77;;;;;;;;;;5032765;28;20396;-60
2024/01/09 06:42:57;;;;;;;3.50;1.88;;;;;;;;;;5020565;28;20421;-60
2024/01/09 06:45:23;;;;;;;3.78;1.67;;;;;;;;;;5017403;28;20073;-60
2024/01/09 06:47:49;;;;;;;2.05;1.85;;;;;;;;;;5012782;28;20532;-61
2024/01/09 06:50:15;;;;;;;2.22;1.50;;;;;;;;;;5016766;28;20054;-60
2024/01/09 06:52:42;;;;;;;1.83;1.70;;;;;;;;;;5023455;28;20029;-59
2024/01/09 06:55:08;;;;;;;2.05;1.77;;;;;;;;;;5014574;28;20305;-60
2024/01/09 06:57:34;;;;;;;3.78;1.50;;;;;;;;;;5020420;28;20113;-61
2024/01/09 07:00:01;;;;;;;4.22;2.10;;;;;;;;;;5038931;28;20037;-60
2024/01/09 07:02:30;;;;;;;7.18;2.35;;;;;;;;;;5015892;28;20227;-64
2024/01/09 07:04:57;;;;;;;5.53;2.03;;;;;;;;;;5021717;28;20120;-62
2024/01/09 07:07:23;;;;;;;4.90;2.08;;;;;;;;;;5021616;28;20044;-63
2024/01/09 07:09:49;;;;;;;1.35;1.30;;;;;;;;;;5010940;28;20084;-60
2024/01/09 07:12:16;;;;;;;3.78;1.50;;;;;;;;;;5014265;28;20082;-60
2024/01/09 07:14:43;;;;;;;5.80;2.55;;;;;;;;;;5020701;28;20032;-61
2024/01/09 07:17:09;;;;;;;2.10;1.73;;;;;;;;;;5019160;28;20227;-61
2024/01/09 07:19:35;;;;;;;6.70;1.90;;;;;;;;;;5033872;28;20029;-64
2024/01/09 07:22:02;;;;;;;5.47;2.75;;;;;;;;;;5015867;28;20029;-60
2024/01/09 07:24:28;;;;;;;1.58;1.45;;;;;;;;;;5018963;28;20090;-61
2024/01/09 07:26:54;;;;;;;5.60;2.47;;;;;;;;;;5022650;28;20561;-61
2024/01/09 07:29:21;;;;;;;7.28;2.20;;;;;;;;;;5018419;28;20186;-61
2024/01/09 07:31:47;;;;;;;3.28;2.30;;;;;;;;;;5017336;28;20041;-67
2024/01/09 07:34:16;;;;;;;5.05;2.00;;;;;;;;;;5019482;28;20441;-63
2024/01/09 07:36:43;;;;;;;4.65;1.75;;;;;;;;;;5023084;28;20493;-66
2024/01/09 07:39:09;;;;;;;2.03;1.92;;;;;;;;;;5038237;28;20041;-62
2024/01/09 07:41:36;;;;;;;4.22;1.80;;;;;;;;;;5035958;28;20532;-60
2024/01/09 07:44:03;;;;;;;3.50;2.05;;;;;;;;;;5020425;28;20122;-61
2024/01/09 07:46:30;;;;;;;3.17;2.05;;;;;;;;;;5022275;28;20392;-61
2024/01/09 07:48:56;;;;;;;7.03;2.45;;;;;;;;;;5017384;28;20390;-61
2024/01/09 07:51:23;;;;;;;3.67;2.00;;;;;;;;;;5019678;28;20056;-61
2024/01/09 07:53:49;;;;;;;6.68;1.58;;;;;;;;;;5019696;28;20036;-61
2024/01/09 07:56:16;;;;;;;3.95;2.00;;;;;;;;;;5014783;28;20120;-62
2024/01/09 07:58:48;;;;;;;4.85;1.80;;;;;;;;;;5014329;28;20033;-61
2024/01/09 08:01:15;;;;;;;3.92;2.60;;;;;;;;;;5022811;28;20020;-63
2024/01/09 08:03:41;;;;;;;13.40;2.28;;;;;;;;;;5037123;28;20037;-64
2024/01/09 08:06:17;;;;;;;4.13;1.65;;;;;;;;;;5037321;28;20412;-68
2024/01/09 08:08:43;;;;;;;7.75;2.15;;;;;;;;;;5019209;28;20026;-62
2024/01/09 08:11:10;;;;;;;5.47;1.83;;;;;;;;;;5020449;28;20036;-61
2024/01/09 08:13:37;;;;;;;7.10;1.85;;;;;;;;;;5015239;28;20035;-62
2024/01/09 08:16:03;;;;;;;1.80;1.70;;;;;;;;;;5011611;28;20100;-62
2024/01/09 08:18:29;;;;;;;1.83;1.73;;;;;;;;;;5031433;28;20029;-61
2024/01/09 08:20:59;;;;;;;11.13;2.40;;;;;;;;;;5028443;28;20025;-61
2024/01/09 08:23:25;;;;;;;2.78;1.95;;;;;;;;;;5018573;28;20022;-61
2024/01/09 08:25:52;;;;;;;4.90;2.55;;;;;;;;;;5024283;28;20029;-61
2024/01/09 08:28:18;;;;;;;1.30;1.30;;;;;;;;;;5021524;28;20034;-61
2024/01/09 08:30:44;;;;;;;1.73;1.63;;;;;;;;;;5023121;28;20053;-67
2024/01/09 08:33:11;;;;;;;3.88;2.53;;;;;;;;;;5020910;28;20037;-61
2024/01/09 08:35:39;;;;;;;3.38;1.60;;;;;;;;;;5020367;28;20747;-60
2024/01/09 08:38:06;;;;;;;2.40;1.90;;;;;;;;;;5023713;28;20026;-61
2024/01/09 08:40:32;;;;;;;6.00;2.35;;;;;;;;;;5021602;28;20017;-62
2024/01/09 08:42:58;;;;;;;6.18;1.98;;;;;;;;;;5027553;28;20586;-65
2024/01/09 08:45:25;;;;;;;2.63;1.88;;;;;;;;;;5015290;28;20044;-61
2024/01/09 08:47:51;;;;;;;4.38;1.90;;;;;;;;;;5017102;28;20404;-62
2024/01/09 08:50:17;;;;;;;4.78;2.50;;;;;;;;;;5014932;28;20053;-61
2024/01/09 08:52:43;;;;;;;1.90;1.80;;;;;;;;;;5036324;28;20501;-62
2024/01/09 08:55:12;;;;;;;7.13;2.13;;;;;;;;;;5024902;28;20536;-60
2024/01/09 08:57:39;;;;;;;2.08;1.95;;;;;;;;;;5020777;28;20053;-62
2024/01/09 09:00:05;;;;;;;5.20;1.80;;;;;;;;;;5016569;28;20112;-62
2024/01/09 09:02:31;;;;;;;6.75;2.63;;;;;;;;;;5015066;28;20124;-61
2024/01/09 09:04:57;;;;;;;1.55;1.50;;;;;;;;;;5015880;28;20025;-61
2024/01/09 09:07:24;;;;;;;8.43;2.47;;;;;;;;;;5034525;28;20057;-61
2024/01/09 09:09:50;;;;;;;2.45;2.25;;;;;;;;;;5017140;28;20076;-61
2024/01/09 09:12:16;;;;;;;5.90;2.00;;;;;;;;;;5014694;28;20018;-61
2024/01/09 09:14:43;;;;;;;3.67;1.70;;;;;;;;;;5014327;28;20485;-61
2024/01/09 09:17:10;;;;;;;2.47;1.90;;;;;;;;;;5031280;28;20033;-61
2024/01/09 09:19:36;;;;;;;3.33;1.80;;;;;;;;;;5017926;28;20036;-62
2024/01/09 09:22:03;;;;;;;2.08;1.95;;;;;;;;;;5019020;28;20031;-62
2024/01/09 09:24:29;;;;;;;3.50;1.80;;;;;;;;;;5016415;28;20025;-62
2024/01/09 09:26:55;;;;;;;1.70;1.60;;;;;;;;;;5019184;28;20040;-61
2024/01/09 09:29:22;;;;;;;2.35;2.13;;;;;;;;;;5017581;28;20033;-62
2024/01/09 09:31:48;;;;;;;2.95;2.35;;;;;;;;;;5018907;28;20433;-63
2024/01/09 09:34:15;;;;;;;3.10;2.13;;;;;;;;;;5018318;28;20053;-63
2024/01/09 09:36:41;;;;;;;1.45;1.45;;;;;;;;;;5020355;28;20577;-62
2024/01/09 09:39:07;;;;;;;2.35;1.77;;;;;;;;;;5015745;28;20029;-61
2024/01/09 09:41:36;;;;;;;3.95;2.83;;;;;;;;;;5016486;28;20034;-64
2024/01/09 09:44:09;;;;;;;5.03;2.67;;;;;;;;;;5036867;28;20042;-61
2024/01/09 09:46:37;;;;;;;4.22;2.83;;;;;;;;;;5019455;28;20056;-62
2024/01/09 09:49:03;;;;;;;8.30;2.67;;;;;;;;;;5023724;28;20453;-64
2024/01/09 09:51:30;;;;;;;11.57;2.58;;;;;;;;;;5015187;28;20073;-61
2024/01/09 09:53:56;;;;;;;4.60;2.28;;;;;;;;;;5029130;28;20029;-61
2024/01/09 09:56:25;;;;;;;5.18;2.95;;;;;;;;;;5023854;28;20038;-61
2024/01/09 09:58:51;;;;;;;2.50;2.30;;;;;;;;;;5024045;28;20013;-62
2024/01/09 10:01:17;;;;;;;3.97;2.25;;;;;;;;;;5031694;28;21495;-63
2024/01/09 10:04:04;;;;;;;1.90;1.80;;;;;;;;;;5027251;28;20168;-63
2024/01/09 10:06:31;;;;;;;4.00;2.28;;;;;;;;;;5010559;28;20087;-62
2024/01/09 10:08:58;;;;;;;2.03;1.88;;;;;;;;;;5033479;28;20515;-60
2024/01/09 10:11:25;;;;;;;1.83;1.73;;;;;;;;;;5024057;28;20057;-61
2024/01/09 10:13:51;;;;;;;2.85;2.55;;;;;;;;;;5020109;28;20048;-62
2024/01/09 10:16:18;;;;;;;4.38;2.17;;;;;;;;;;5024057;28;20513;-61
2024/01/09 10:18:45;;;;;;;6.20;2.17;;;;;;;;;;5022952;28;20192;-61
2024/01/09 10:21:11;;;;;;;3.83;1.60;;;;;;;;;;5021247;28;20428;-61
2024/01/09 10:23:39;;;;;;;3.00;2.40;;;;;;;;;;5032231;28;20049;-61
2024/01/09 10:26:10;;;;;;;4.57;2.58;;;;;;;;;;5023643;28;20417;-62
2024/01/09 10:28:38;;;;;;;1.92;1.83;;;;;;;;;;5039968;28;20633;-62
2024/01/09 10:31:06;;;;;;;2.88;1.98;;;;;;;;;;5021419;28;20858;-62
2024/01/09 10:33:32;;;;;;;1.63;1.52;;;;;;;;;;5017124;28;21015;-62
2024/01/09 10:35:59;;;;;;;7.75;2.40;;;;;;;;;;5022816;28;20025;-61
2024/01/09 10:38:26;;;;;;;4.07;2.22;;;;;;;;;;5037240;28;20037;-63
2024/01/09 10:40:56;;;;;;;1.90;1.80;;;;;;;;;;5018914;28;20025;-62
2024/01/09 10:43:26;;;;;;;3.28;2.22;;;;;;;;;;5024794;28;20044;-64
2024/01/09 10:45:53;;;;;;;7.00;2.20;;;;;;;;;;5037660;28;20037;-62
2024/01/09 10:48:23;;;;;;;9.90;2.88;;;;;;;;;;5034430;28;20036;-62
2024/01/09 10:50:51;;;;;;;1.50;1.40;;;;;;;;;;5022027;28;20053;-63
2024/01/09 10:53:19;;;;;;;4.03;2.60;;;;;;;;;;5018367;28;20049;-62
2024/01/09 10:55:45;;;;;;;3.78;2.10;;;;;;;;;;5021104;28;20025;-63
2024/01/09 10:58:12;;;;;;;3.20;2.55;;;;;;;;;;5024788;28;20040;-62
2024/01/09 11:00:40;;;;;;;6.43;2.80;;;;;;;;;;5041812;28;20035;-61
2024/01/09 11:03:07;;;;;;;3.35;1.80;;;;;;;;;;5020057;28;20107;-66
2024/01/09 11:05:43;;;;;;;6.53;1.88;;;;;;;;;;5021437;28;20025;-62
2024/01/09 11:08:11;;;;;;;3.10;1.70;;;;;;;;;;5029305;28;20057;-61
2024/01/09 11:10:37;;;;;;;4.75;2.25;;;;;;;;;;5011309;28;20097;-62
2024/01/09 11:13:05;;;;;;;2.95;2.28;;;;;;;;;;5015004;28;20192;-62
2024/01/09 11:15:47;;;;;;;6.70;2.63;;;;;;;;;;5022169;28;20046;-66
2024/01/09 11:18:17;;;;;;;3.40;1.77;;;;;;;;;;5016037;28;20017;-61
2024/01/09 11:20:43;;;;;;;3.70;1.83;;;;;;;;;;5014343;28;20029;-60
2024/01/09 11:23:13;;;;;;;5.90;2.45;;;;;;;;;;5032749;28;20385;-62
2024/01/09 11:25:39;;;;;;;2.20;2.00;;;;;;;;;;5014508;28;20370;-62
2024/01/09 11:28:24;;;;;;;3.00;1.73;;;;;;;;;;5020141;28;20021;-61
2024/01/09 11:30:51;;;;;;;2.47;1.67;;;;;;;;;;5017653;28;20083;-62
2024/01/09 11:33:28;;;;;;;2.38;2.15;;;;;;;;;;5023109;28;20779;-64
2024/01/09 11:35:55;;;;;;;2.42;2.08;;;;;;;;;;5022594;28;20523;-62
2024/01/09 11:38:22;;;;;;;2.70;2.13;;;;;;;;;;5019885;28;20030;-67
2024/01/09 11:40:48;;;;;;;6.18;2.28;;;;;;;;;;5040011;28;20453;-67
2024/01/09 11:43:15;;;;;;;3.88;2.35;;;;;;;;;;5035884;28;20898;-62
2024/01/09 11:45:42;;;;;;;5.93;2.05;;;;;;;;;;5040405;28;20033;-62
2024/01/09 11:48:08;;;;;;;5.78;2.45;;;;;;;;;;5035408;28;20025;-61
2024/01/09 11:50:35;;;;;;;5.65;2.53;;;;;;;;;;5037969;28;20060;-62
2024/01/09 11:53:05;;;;;;;15.02;1.92;;;;;;;;;;5018906;28;20057;-62
2024/01/09 11:55:32;;;;;;;2.92;1.77;;;;;;;;;;5025112;28;20203;-62
2024/01/09 11:57:59;;;;;;;4.07;2.00;;;;;;;;;;5026654;28;20083;-62
2024/01/09 12:00:25;;;;;;;8.25;2.28;;;;;;;;;;5025196;28;20069;-62
2024/01/09 12:02:52;;;;;;;5.20;2.05;;;;;;;;;;5029276;28;20392;-62
2024/01/09 12:05:18;;;;;;;2.35;1.90;;;;;;;;;;5020301;28;20030;-63
2024/01/09 12:07:44;;;;;;;2.22;1.90;;;;;;;;;;5018748;28;20033;-62
2024/01/09 12:10:11;;;;;;;3.35;1.95;;;;;;;;;;5014321;28;20092;-62
2024/01/09 12:12:37;;;;;;;4.22;2.33;;;;;;;;;;5022564;28;20382;-61
2024/01/09 12:15:04;;;;;;;2.20;2.00;;;;;;;;;;5020529;28;20089;-65
2024/01/09 12:17:36;;;;;;;1.92;1.73;;;;;;;;;;5027740;28;20017;-63
2024/01/09 12:20:11;;;;;;;7.03;2.40;;;;;;;;;;5017816;28;20057;-61
2024/01/09 12:22:37;;;;;;;2.67;2.20;;;;;;;;;;5025592;28;20032;-63
2024/01/09 12:25:05;;;;;;;6.50;2.25;;;;;;;;;;5024445;28;20037;-61
2024/01/09 12:27:32;;;;;;;6.25;2.70;;;;;;;;;;5038081;28;20029;-63
2024/01/09 12:29:58;;;;;;;4.80;1.90;;;;;;;;;;5038762;28;20663;-64
2024/01/09 12:32:25;;;;;;;6.35;2.67;;;;;;;;;;5027132;28;20029;-64
2024/01/09 12:34:51;;;;;;;5.25;2.60;;;;;;;;;;5018964;28;20026;-62
2024/01/09 12:37:18;;;;;;;7.03;2.55;;;;;;;;;;5019667;28;20026;-61
2024/01/09 12:39:44;;;;;;;6.07;2.40;;;;;;;;;;5027202;28;20024;-63
2024/01/09 12:42:13;;;;;;;5.90;2.83;;;;;;;;;;5022721;28;20026;-65
2024/01/09 12:44:39;;;;;;;7.07;3.80;;;;;;;;;;5021142;28;20033;-61
2024/01/09 12:47:09;;;;;;;6.07;2.75;;;;;;;;;;5038661;28;20041;-62
2024/01/09 12:49:49;;;;;;;6.55;2.30;;;;;;;;;;5023706;28;20029;-61
2024/01/09 12:52:17;;;;;;;4.57;2.25;;;;;;;;;;5023518;28;20077;-61
2024/01/09 12:54:43;;;;;;;3.00;2.22;;;;;;;;;;5025500;28;20017;-61
2024/01/09 12:57:10;;;;;;;4.30;2.65;;;;;;;;;;5019062;28;20377;-62
2024/01/09 12:59:40;;;;;;;3.95;2.35;;;;;;;;;;5037994;28;20025;-61
2024/01/09 13:02:08;;;;;;;7.07;2.50;;;;;;;;;;5016395;28;20182;-61
2024/01/09 13:04:34;;;;;;;5.55;2.20;;;;;;;;;;5039639;28;20029;-61
2024/01/09 13:07:01;;;;;;;6.05;2.38;;;;;;;;;;5023298;28;20033;-61
2024/01/09 13:09:28;;;;;;;5.60;2.45;;;;;;;;;;5037282;28;20417;-61
2024/01/09 13:11:54;;;;;;;3.15;2.20;;;;;;;;;;5021979;28;20405;-60
2024/01/09 13:14:21;;;;;;;6.65;3.15;;;;;;;;;;5021385;28;20029;-61
2024/01/09 13:16:51;;;;;;;5.30;2.58;;;;;;;;;;5017536;28;20791;-61
2024/01/09 13:19:18;;;;;;;6.93;2.13;;;;;;;;;;5026680;28;20036;-60
2024/01/09 13:21:45;;;;;;;5.20;2.22;;;;;;;;;;5027112;28;20022;-61
2024/01/09 13:24:12;;;;;;;7.38;3.10;;;;;;;;;;5028913;28;20025;-61
2024/01/09 13:26:39;;;;;;;4.18;2.53;;;;;;;;;;5026487;28;20080;-61
2024/01/09 13:29:06;;;;;;;8.15;3.08;;;;;;;;;;5026194;28;20033;-62
2024/01/09 13:31:32;;;;;;;3.35;2.33;;;;;;;;;;5020477;28;20320;-61
2024/01/09 13:33:59;;;;;;;7.18;2.63;;;;;;;;;;5020279;28;20028;-60
2024/01/09 13:36:27;;;;;;;6.90;3.17;;;;;;;;;;5035893;28;20178;-61
2024/01/09 13:38:55;;;;;;;7.72;3.00;;;;;;;;;;5033846;28;20076;-61
2024/01/09 13:41:21;;;;;;;7.43;3.53;;;;;;;;;;5034862;28;20055;-61
2024/01/09 13:43:48;;;;;;;9.10;3.70;;;;;;;;;;5023582;28;20040;-61
2024/01/09 13:46:14;;;;;;;5.70;2.80;;;;;;;;;;5020853;28;20032;-61
2024/01/09 13:48:42;;;;;;;6.63;2.95;;;;;;;;;;5026193;28;20043;-63
2024/01/09 13:51:09;;;;;;;7.75;3.08;;;;;;;;;;5018454;28;20046;-62
2024/01/09 13:53:35;;;;;;;7.82;3.03;;;;;;;;;;5025598;28;20664;-61
2024/01/09 13:56:05;;;;;;;6.50;3.17;;;;;;;;;;5039868;28;20032;-61
2024/01/09 13:58:35;;;;;;;11.45;3.42;;;;;;;;;;5011593;28;20022;-61
2024/01/09 14:01:02;;;;;;;5.50;2.58;;;;;;;;;;5022478;28;20033;-63
2024/01/09 14:03:28;;;;;;;7.47;3.08;;;;;;;;;;5025287;28;20508;-62
2024/01/09 14:05:55;;;;;;;8.93;2.85;;;;;;;;;;5023871;28;20026;-62
2024/01/09 14:08:21;;;;;;;7.25;3.03;;;;;;;;;;5026470;28;20469;-62
2024/01/09 14:10:47;;;;;;;8.48;2.58;;;;;;;;;;5038779;28;20048;-62
2024/01/09 14:13:14;;;;;;;6.55;2.83;;;;;;;;;;5027206;28;20057;-63
2024/01/09 14:15:40;;;;;;;5.00;2.60;;;;;;;;;;5023891;28;20025;-62
2024/01/09 14:18:10;;;;;;;6.82;2.90;;;;;;;;;;5022796;28;20025;-62
2024/01/09 14:20:39;;;;;;;9.52;3.15;;;;;;;;;;5026970;28;20115;-62
2024/01/09 14:23:06;;;;;;;5.95;2.72;;;;;;;;;;5028497;28;20040;-63
2024/01/09 14:25:32;;;;;;;7.05;2.85;;;;;;;;;;5021642;28;20627;-62
2024/01/09 14:27:59;;;;;;;5.07;2.10;;;;;;;;;;5021449;28;20513;-62
2024/01/09 14:30:25;;;;;;;8.68;2.95;;;;;;;;;;5037488;28;20048;-62
2024/01/09 14:32:51;;;;;;;4.60;3.25;;;;;;;;;;5022503;28;20481;-62
2024/01/09 14:35:19;;;;;;;3.08;2.10;;;;;;;;;;5020729;28;20025;-60
2024/01/09 14:37:45;;;;;;;4.57;3.15;;;;;;;;;;5020750;28;20892;-62
2024/01/09 14:40:12;;;;;;;10.10;2.95;;;;;;;;;;5038511;28;20025;-61
2024/01/09 14:42:41;;;;;;;7.13;2.88;;;;;;;;;;5024705;28;20030;-66